sensor_id;sensor_type;location;lat;lon;timestamp;temperature;humidity
11112;DHT22;5609;49.466;8.468;2022-11-14T11:04:27;6.70;99.90
11112;DHT22;5609;49.466;8.468;2022-11-14T11:06:57;12.10;99.90
11112;DHT22;5609;49.466;8.468;2022-11-14T11:09:26;11.70;99.90
11112;DHT22;5609;49.466;8.468;2022-11-14T11:12:14;11.50;99.90
11112;DHT22;5609;49.466;8.468;2022-11-14T11:14:42;11.40;99.90
11112;DHT22;5609;49.466;8.468;2022-11-14T11:17:17;11.30;99.90
11112;DHT22;5609;49.466;8.468;2022-11-14T11:19:45;11.30;99.90
11112;DHT22;5609;49.466;8.468;2022-11-14T11:22:27;11.20;99.90
11112;DHT22;5609;49.466;8.468;2022-11-14T11:24:54;11.20;99.90
11112;DHT22;5609;49.466;8.468;2022-11-14T11:27:24;11.20;99.90
11112;DHT22;5609;49.466;8.468;2022-11-14T11:30:08;11.20;99.90
11112;DHT22;5609;49.466;8.468;2022-11-14T11:32:42;11.10;99.90
11112;DHT22;5609;49.466;8.468;2022-11-14T11:35:11;11.20;99.90
11112;DHT22;5609;49.466;8.468;2022-11-14T11:37:43;11.20;99.90
11112;DHT22;5609;49.466;8.468;2022-11-14T11:40:16;11.30;99.90
11112;DHT22;5609;49.466;8.468;2022-11-14T11:42:48;11.20;99.90
11112;DHT22;5609;49.466;8.468;2022-11-14T11:45:17;11.20;99.90
11112;DHT22;5609;49.466;8.468;2022-11-14T11:47:50;11.10;99.90
11112;DHT22;5609;49.466;8.468;2022-11-14T11:50:19;11.00;99.90
11112;DHT22;5609;49.466;8.468;2022-11-14T11:52:55;10.90;99.90
11112;DHT22;5609;49.466;8.468;2022-11-14T11:55:26;10.80;99.90
11112;DHT22;5609;49.466;8.468;2022-11-14T11:58:01;10.70;99.90
11112;DHT22;5609;49.466;8.468;2022-11-14T12:00:28;10.60;99.90
11112;DHT22;5609;49.466;8.468;2022-11-14T12:02:56;10.60;99.90
11112;DHT22;5609;49.466;8.468;2022-11-14T12:05:27;10.50;99.90
11112;DHT22;5609;49.466;8.468;2022-11-14T12:08:00;10.60;99.90
11112;DHT22;5609;49.466;8.468;2022-11-14T12:10:32;10.50;99.90
11112;DHT22;5609;49.466;8.468;2022-11-14T12:16:09;10.30;99.90
11112;DHT22;5609;49.466;8.468;2022-11-14T12:19:00;10.30;99.90
11112;DHT22;5609;49.466;8.468;2022-11-14T12:21:46;10.30;99.90
11112;DHT22;5609;49.466;8.468;2022-11-14T12:24:48;10.20;99.90
11112;DHT22;5609;49.466;8.468;2022-11-14T12:27:24;10.30;99.90
11112;DHT22;5609;49.466;8.468;2022-11-14T12:30:07;10.40;99.90
11112;DHT22;5609;49.466;8.468;2022-11-14T12:32:38;10.40;99.90
11112;DHT22;5609;49.466;8.468;2022-11-14T12:35:12;10.50;99.90
11112;DHT22;5609;49.466;8.468;2022-11-14T12:37:43;10.40;99.90
11112;DHT22;5609;49.466;8.468;2022-11-14T12:40:23;10.40;99.90
11112;DHT22;5609;49.466;8.468;2022-11-14T12:42:51;10.30;99.90
11112;DHT22;5609;49.466;8.468;2022-11-14T12:48:29;10.30;99.90
11112;DHT22;5609;49.466;8.468;2022-11-14T12:50:57;10.30;99.90
11112;DHT22;5609;49.466;8.468;2022-11-14T12:53:42;10.20;99.90
11112;DHT22;5609;49.466;8.468;2022-11-14T12:56:24;10.20;99.90
11112;DHT22;5609;49.466;8.468;2022-11-14T12:59:28;10.20;99.90
11112;DHT22;5609;49.466;8.468;2022-11-14T13:02:13;10.20;99.90
11112;DHT22;5609;49.466;8.468;2022-11-14T13:04:54;10.10;99.90
11112;DHT22;5609;49.466;8.468;2022-11-14T13:07:32;10.00;99.90
11112;DHT22;5609;49.466;8.468;2022-11-14T13:10:12;9.90;99.90
11112;DHT22;5609;49.466;8.468;2022-11-14T13:12:45;9.90;99.90
11112;DHT22;5609;49.466;8.468;2022-11-14T13:15:47;9.90;99.90
11112;DHT22;5609;49.466;8.468;2022-11-14T13:18:32;10.00;99.90
11112;DHT22;5609;49.466;8.468;2022-11-14T13:21:19;10.10;99.90
11112;DHT22;5609;49.466;8.468;2022-11-14T13:24:04;10.20;99.90
11112;DHT22;5609;49.466;8.468;2022-11-14T13:26:36;10.30;99.90
11112;DHT22;5609;49.466;8.468;2022-11-14T13:29:04;10.40;99.90
11112;DHT22;5609;49.466;8.468;2022-11-14T13:31:48;10.40;99.90
11112;DHT22;5609;49.466;8.468;2022-11-14T13:34:31;10.40;99.90
11112;DHT22;5609;49.466;8.468;2022-11-14T13:37:08;10.30;99.90
11112;DHT22;5609;49.466;8.468;2022-11-14T13:39:43;10.30;99.90
11112;DHT22;5609;49.466;8.468;2022-11-14T13:42:23;10.30;99.90
11112;DHT22;5609;49.466;8.468;2022-11-14T13:45:16;10.40;99.90
11112;DHT22;5609;49.466;8.468;2022-11-14T13:50:50;10.60;99.90
11112;DHT22;5609;49.466;8.468;2022-11-14T13:53:20;10.70;99.90
11112;DHT22;5609;49.466;8.468;2022-11-14T13:55:54;10.90;99.90
11112;DHT22;5609;49.466;8.468;2022-11-14T13:58:35;11.10;99.90
11112;DHT22;5609;49.466;8.468;2022-11-14T14:01:13;11.30;99.90
11112;DHT22;5609;49.466;8.468;2022-11-14T14:03:55;11.40;99.90
11112;DHT22;5609;49.466;8.468;2022-11-14T14:06:33;11.30;99.90
11112;DHT22;5609;49.466;8.468;2022-11-14T14:09:12;11.10;99.90
11112;DHT22;5609;49.466;8.468;2022-11-14T14:11:52;10.90;99.90
11112;DHT22;5609;49.466;8.468;2022-11-14T14:14:42;10.80;99.90
11112;DHT22;5609;49.466;8.468;2022-11-14T14:17:18;10.70;99.90
11112;DHT22;5609;49.466;8.468;2022-11-14T14:19:58;10.60;99.90
11112;DHT22;5609;49.466;8.468;2022-11-14T14:22:31;10.50;99.90
11112;DHT22;5609;49.466;8.468;2022-11-14T14:25:12;10.50;99.90
11112;DHT22;5609;49.466;8.468;2022-11-14T14:27:52;10.40;99.90
11112;DHT22;5609;49.466;8.468;2022-11-14T14:30:21;10.40;99.90
11112;DHT22;5609;49.466;8.468;2022-11-14T14:33:09;10.40;99.90
11112;DHT22;5609;49.466;8.468;2022-11-14T14:35:37;10.30;99.90
11112;DHT22;5609;49.466;8.468;2022-11-14T14:38:10;10.30;99.90
11112;DHT22;5609;49.466;8.468;2022-11-14T14:40:39;10.30;99.90
11112;DHT22;5609;49.466;8.468;2022-11-14T14:43:06;10.20;99.90
11112;DHT22;5609;49.466;8.468;2022-11-14T14:45:43;10.20;99.90
11112;DHT22;5609;49.466;8.468;2022-11-14T14:48:14;10.30;99.90
11112;DHT22;5609;49.466;8.468;2022-11-14T14:50:46;10.30;99.90
11112;DHT22;5609;49.466;8.468;2022-11-14T14:53:18;10.30;99.90
11112;DHT22;5609;49.466;8.468;2022-11-14T14:55:51;10.40;99.90
11112;DHT22;5609;49.466;8.468;2022-11-14T14:58:24;10.50;99.90
11112;DHT22;5609;49.466;8.468;2022-11-14T15:00:53;10.50;99.90
11112;DHT22;5609;49.466;8.468;2022-11-14T15:03:23;10.50;99.90
11112;DHT22;5609;49.466;8.468;2022-11-14T15:05:59;10.50;99.90
11112;DHT22;5609;49.466;8.468;2022-11-14T15:08:28;10.40;99.90
11112;DHT22;5609;49.466;8.468;2022-11-14T15:10:58;10.40;99.90
11112;DHT22;5609;49.466;8.468;2022-11-14T15:13:27;10.30;99.90
11112;DHT22;5609;49.466;8.468;2022-11-14T15:15:54;10.30;99.90
11112;DHT22;5609;49.466;8.468;2022-11-14T15:18:25;10.20;99.90
11112;DHT22;5609;49.466;8.468;2022-11-14T15:21:15;10.10;99.90
11112;DHT22;5609;49.466;8.468;2022-11-14T15:23:42;10.10;99.90
11112;DHT22;5609;49.466;8.468;2022-11-14T15:26:13;10.10;99.90
11112;DHT22;5609;49.466;8.468;2022-11-14T15:28:40;10.00;99.90
11112;DHT22;5609;49.466;8.468;2022-11-14T15:31:15;10.00;99.90
11112;DHT22;5609;49.466;8.468;2022-11-14T15:33:45;10.00;99.90
11112;DHT22;5609;49.466;8.468;2022-11-14T15:36:13;9.90;99.90
11112;DHT22;5609;49.466;8.468;2022-11-14T15:38:57;10.00;99.90
11112;DHT22;5609;49.466;8.468;2022-11-14T15:41:25;9.90;99.90
11112;DHT22;5609;49.466;8.468;2022-11-14T15:43:55;9.90;99.90
11112;DHT22;5609;49.466;8.468;2022-11-14T15:46:42;9.90;99.90
11112;DHT22;5609;49.466;8.468;2022-11-14T15:49:19;9.90;99.90
11112;DHT22;5609;49.466;8.468;2022-11-14T15:51:48;9.90;99.90
11112;DHT22;5609;49.466;8.468;2022-11-14T15:54:25;9.90;99.90
11112;DHT22;5609;49.466;8.468;2022-11-14T15:56:53;9.90;99.90
11112;DHT22;5609;49.466;8.468;2022-11-14T15:59:21;9.90;99.90
11112;DHT22;5609;49.466;8.468;2022-11-14T16:01:51;9.90;99.90
11112;DHT22;5609;49.466;8.468;2022-11-14T16:04:20;9.90;99.90
11112;DHT22;5609;49.466;8.468;2022-11-14T16:06:48;9.90;99.90
11112;DHT22;5609;49.466;8.468;2022-11-14T16:09:17;9.90;99.90
11112;DHT22;5609;49.466;8.468;2022-11-14T16:11:44;9.90;99.90
11112;DHT22;5609;49.466;8.468;2022-11-14T16:14:11;9.90;99.90
11112;DHT22;5609;49.466;8.468;2022-11-14T16:16:39;10.00;99.90
11112;DHT22;5609;49.466;8.468;2022-11-14T16:19:07;9.90;99.90
11112;DHT22;5609;49.466;8.468;2022-11-14T16:21:36;9.90;99.90
11112;DHT22;5609;49.466;8.468;2022-11-14T16:24:03;9.90;99.90
11112;DHT22;5609;49.466;8.468;2022-11-14T16:26:30;10.00;99.90
11112;DHT22;5609;49.466;8.468;2022-11-14T16:28:57;10.00;99.90
11112;DHT22;5609;49.466;8.468;2022-11-14T16:31:24;10.00;99.90
11112;DHT22;5609;49.466;8.468;2022-11-14T16:33:50;10.00;99.90
11112;DHT22;5609;49.466;8.468;2022-11-14T16:36:20;10.00;99.90
11112;DHT22;5609;49.466;8.468;2022-11-14T16:38:48;10.00;99.90
11112;DHT22;5609;49.466;8.468;2022-11-14T16:41:16;10.00;99.90
11112;DHT22;5609;49.466;8.468;2022-11-14T16:43:43;10.00;99.90
11112;DHT22;5609;49.466;8.468;2022-11-14T16:46:10;9.90;99.90
11112;DHT22;5609;49.466;8.468;2022-11-14T16:48:38;9.80;99.90
11112;DHT22;5609;49.466;8.468;2022-11-14T16:51:04;9.70;99.90
11112;DHT22;5609;49.466;8.468;2022-11-14T16:53:31;9.70;99.90
11112;DHT22;5609;49.466;8.468;2022-11-14T16:55:59;9.60;99.90
11112;DHT22;5609;49.466;8.468;2022-11-14T16:58:26;9.60;99.90
11112;DHT22;5609;49.466;8.468;2022-11-14T17:00:53;9.60;99.90
11112;DHT22;5609;49.466;8.468;2022-11-14T17:03:20;9.50;99.90
11112;DHT22;5609;49.466;8.468;2022-11-14T17:05:48;9.60;99.90
11112;DHT22;5609;49.466;8.468;2022-11-14T17:08:16;9.60;99.90
11112;DHT22;5609;49.466;8.468;2022-11-14T17:10:44;9.60;99.90
11112;DHT22;5609;49.466;8.468;2022-11-14T17:13:13;9.50;99.90
11112;DHT22;5609;49.466;8.468;2022-11-14T17:15:41;9.60;99.90
11112;DHT22;5609;49.466;8.468;2022-11-14T17:18:08;9.60;99.90
11112;DHT22;5609;49.466;8.468;2022-11-14T17:20:36;9.60;99.90
11112;DHT22;5609;49.466;8.468;2022-11-14T17:23:03;9.60;99.90
11112;DHT22;5609;49.466;8.468;2022-11-14T17:25:29;9.60;99.90
11112;DHT22;5609;49.466;8.468;2022-11-14T17:27:56;9.60;99.90
11112;DHT22;5609;49.466;8.468;2022-11-14T17:30:24;9.60;99.90
11112;DHT22;5609;49.466;8.468;2022-11-14T17:32:51;9.60;99.90
11112;DHT22;5609;49.466;8.468;2022-11-14T17:35:19;9.50;99.90
11112;DHT22;5609;49.466;8.468;2022-11-14T17:37:46;9.60;99.90
11112;DHT22;5609;49.466;8.468;2022-11-14T17:40:13;9.60;99.90
11112;DHT22;5609;49.466;8.468;2022-11-14T17:42:40;9.50;99.90
11112;DHT22;5609;49.466;8.468;2022-11-14T17:45:08;9.50;99.90
11112;DHT22;5609;49.466;8.468;2022-11-14T17:47:36;9.50;99.90
11112;DHT22;5609;49.466;8.468;2022-11-14T17:50:03;9.50;99.90
11112;DHT22;5609;49.466;8.468;2022-11-14T17:52:30;9.50;99.90
11112;DHT22;5609;49.466;8.468;2022-11-14T17:54:57;9.50;99.90
11112;DHT22;5609;49.466;8.468;2022-11-14T17:57:23;9.50;99.90
11112;DHT22;5609;49.466;8.468;2022-11-14T17:59:50;9.50;99.90
11112;DHT22;5609;49.466;8.468;2022-11-14T18:02:17;9.40;99.90
11112;DHT22;5609;49.466;8.468;2022-11-14T18:04:45;9.50;99.90
11112;DHT22;5609;49.466;8.468;2022-11-14T18:07:13;9.50;99.90
11112;DHT22;5609;49.466;8.468;2022-11-14T18:09:40;9.50;99.90
11112;DHT22;5609;49.466;8.468;2022-11-14T18:12:07;9.40;99.90
11112;DHT22;5609;49.466;8.468;2022-11-14T18:14:33;9.50;99.90
11112;DHT22;5609;49.466;8.468;2022-11-14T18:17:01;9.50;99.90
11112;DHT22;5609;49.466;8.468;2022-11-14T18:19:27;9.60;99.90
11112;DHT22;5609;49.466;8.468;2022-11-14T18:21:55;9.70;99.90
11112;DHT22;5609;49.466;8.468;2022-11-14T18:24:22;9.70;99.90
11112;DHT22;5609;49.466;8.468;2022-11-14T18:26:49;9.80;99.90
11112;DHT22;5609;49.466;8.468;2022-11-14T18:29:16;9.80;99.90
11112;DHT22;5609;49.466;8.468;2022-11-14T18:31:43;9.90;99.90
11112;DHT22;5609;49.466;8.468;2022-11-14T18:34:10;9.90;99.90
11112;DHT22;5609;49.466;8.468;2022-11-14T18:36:36;9.90;99.90
11112;DHT22;5609;49.466;8.468;2022-11-14T18:39:05;9.90;99.90
11112;DHT22;5609;49.466;8.468;2022-11-14T18:41:31;9.90;99.90
11112;DHT22;5609;49.466;8.468;2022-11-14T18:43:58;9.90;99.90
11112;DHT22;5609;49.466;8.468;2022-11-14T18:46:26;9.90;99.90
11112;DHT22;5609;49.466;8.468;2022-11-14T18:48:55;10.00;99.90
11112;DHT22;5609;49.466;8.468;2022-11-14T18:51:24;10.00;99.90
11112;DHT22;5609;49.466;8.468;2022-11-14T18:53:51;10.10;99.90
11112;DHT22;5609;49.466;8.468;2022-11-14T18:56:22;10.10;99.90
11112;DHT22;5609;49.466;8.468;2022-11-14T18:58:52;10.10;99.90
11112;DHT22;5609;49.466;8.468;2022-11-14T19:01:21;10.10;99.90
11112;DHT22;5609;49.466;8.468;2022-11-14T19:03:50;10.10;99.90
11112;DHT22;5609;49.466;8.468;2022-11-14T19:06:17;10.20;99.90
11112;DHT22;5609;49.466;8.468;2022-11-14T19:08:44;10.20;99.90
11112;DHT22;5609;49.466;8.468;2022-11-14T19:11:13;10.20;99.90
11112;DHT22;5609;49.466;8.468;2022-11-14T19:13:55;10.20;99.90
11112;DHT22;5609;49.466;8.468;2022-11-14T19:16:22;10.20;99.90
11112;DHT22;5609;49.466;8.468;2022-11-14T19:18:49;10.20;99.90
11112;DHT22;5609;49.466;8.468;2022-11-14T19:21:16;10.20;99.90
11112;DHT22;5609;49.466;8.468;2022-11-14T19:23:42;10.30;99.90
11112;DHT22;5609;49.466;8.468;2022-11-14T19:26:09;10.20;99.90
11112;DHT22;5609;49.466;8.468;2022-11-14T19:28:37;10.20;99.90
11112;DHT22;5609;49.466;8.468;2022-11-14T19:31:06;10.20;99.90
11112;DHT22;5609;49.466;8.468;2022-11-14T19:33:33;10.20;99.90
11112;DHT22;5609;49.466;8.468;2022-11-14T19:36:04;10.20;99.90
11112;DHT22;5609;49.466;8.468;2022-11-14T19:38:31;10.30;99.90
11112;DHT22;5609;49.466;8.468;2022-11-14T19:41:04;10.40;99.90
11112;DHT22;5609;49.466;8.468;2022-11-14T19:43:30;10.40;99.90
11112;DHT22;5609;49.466;8.468;2022-11-14T19:45:59;10.40;99.90
11112;DHT22;5609;49.466;8.468;2022-11-14T19:48:27;10.50;99.90
11112;DHT22;5609;49.466;8.468;2022-11-14T19:50:59;10.40;99.90
11112;DHT22;5609;49.466;8.468;2022-11-14T19:53:26;10.50;99.90
11112;DHT22;5609;49.466;8.468;2022-11-14T19:55:57;10.50;99.90
11112;DHT22;5609;49.466;8.468;2022-11-14T19:58:24;10.50;99.90
11112;DHT22;5609;49.466;8.468;2022-11-14T20:00:51;10.50;99.90
11112;DHT22;5609;49.466;8.468;2022-11-14T20:03:18;10.50;99.90
11112;DHT22;5609;49.466;8.468;2022-11-14T20:05:46;10.40;99.90
11112;DHT22;5609;49.466;8.468;2022-11-14T20:08:13;10.50;99.90
11112;DHT22;5609;49.466;8.468;2022-11-14T20:10:40;10.40;99.90
11112;DHT22;5609;49.466;8.468;2022-11-14T20:13:13;10.40;99.90
11112;DHT22;5609;49.466;8.468;2022-11-14T20:15:39;10.40;99.90
11112;DHT22;5609;49.466;8.468;2022-11-14T20:18:06;10.40;99.90
11112;DHT22;5609;49.466;8.468;2022-11-14T20:20:33;10.40;99.90
11112;DHT22;5609;49.466;8.468;2022-11-14T20:23:01;10.40;99.90
11112;DHT22;5609;49.466;8.468;2022-11-14T20:25:28;10.40;99.90
11112;DHT22;5609;49.466;8.468;2022-11-14T20:27:55;10.40;99.90
11112;DHT22;5609;49.466;8.468;2022-11-14T20:30:22;10.40;99.90
11112;DHT22;5609;49.466;8.468;2022-11-14T20:32:49;10.40;99.90
11112;DHT22;5609;49.466;8.468;2022-11-14T20:35:16;10.50;99.90
11112;DHT22;5609;49.466;8.468;2022-11-14T20:37:43;10.50;99.90
11112;DHT22;5609;49.466;8.468;2022-11-14T20:40:12;10.50;99.90
11112;DHT22;5609;49.466;8.468;2022-11-14T20:42:39;10.50;99.90
11112;DHT22;5609;49.466;8.468;2022-11-14T20:45:06;10.60;99.90
11112;DHT22;5609;49.466;8.468;2022-11-14T20:47:33;10.60;99.90
11112;DHT22;5609;49.466;8.468;2022-11-14T20:50:00;10.60;99.90
11112;DHT22;5609;49.466;8.468;2022-11-14T20:52:27;10.60;99.90
11112;DHT22;5609;49.466;8.468;2022-11-14T20:54:55;10.60;99.90
11112;DHT22;5609;49.466;8.468;2022-11-14T20:57:23;10.60;99.90
11112;DHT22;5609;49.466;8.468;2022-11-14T20:59:50;10.50;99.90
11112;DHT22;5609;49.466;8.468;2022-11-14T21:02:18;10.60;99.90
11112;DHT22;5609;49.466;8.468;2022-11-14T21:04:44;10.50;99.90
11112;DHT22;5609;49.466;8.468;2022-11-14T21:07:11;10.50;99.90
11112;DHT22;5609;49.466;8.468;2022-11-14T21:09:38;10.50;99.90
11112;DHT22;5609;49.466;8.468;2022-11-14T21:12:05;10.50;99.90
11112;DHT22;5609;49.466;8.468;2022-11-14T21:14:33;10.60;99.90
11112;DHT22;5609;49.466;8.468;2022-11-14T21:16:59;10.60;99.90
11112;DHT22;5609;49.466;8.468;2022-11-14T21:19:26;10.60;99.90
11112;DHT22;5609;49.466;8.468;2022-11-14T21:21:54;10.60;99.90
11112;DHT22;5609;49.466;8.468;2022-11-14T21:24:20;10.60;99.90
11112;DHT22;5609;49.466;8.468;2022-11-14T21:26:47;10.60;99.90
11112;DHT22;5609;49.466;8.468;2022-11-14T21:29:14;10.70;99.90
11112;DHT22;5609;49.466;8.468;2022-11-14T21:31:43;10.70;99.90
11112;DHT22;5609;49.466;8.468;2022-11-14T21:34:12;10.80;99.90
11112;DHT22;5609;49.466;8.468;2022-11-14T21:36:39;10.70;99.90
11112;DHT22;5609;49.466;8.468;2022-11-14T21:39:06;10.70;99.90
11112;DHT22;5609;49.466;8.468;2022-11-14T21:41:39;10.70;99.90
11112;DHT22;5609;49.466;8.468;2022-11-14T21:44:09;10.80;99.90
11112;DHT22;5609;49.466;8.468;2022-11-14T21:46:36;10.70;99.90
11112;DHT22;5609;49.466;8.468;2022-11-14T21:49:04;10.70;99.90
11112;DHT22;5609;49.466;8.468;2022-11-14T21:51:31;10.70;99.90
11112;DHT22;5609;49.466;8.468;2022-11-14T21:53:58;10.70;99.90
11112;DHT22;5609;49.466;8.468;2022-11-14T21:56:28;10.70;99.90
11112;DHT22;5609;49.466;8.468;2022-11-14T21:58:56;10.70;99.90
11112;DHT22;5609;49.466;8.468;2022-11-14T22:01:38;10.70;99.90
11112;DHT22;5609;49.466;8.468;2022-11-14T22:04:24;10.70;99.90
11112;DHT22;5609;49.466;8.468;2022-11-14T22:06:51;10.70;99.90
11112;DHT22;5609;49.466;8.468;2022-11-14T22:09:18;10.80;99.90
11112;DHT22;5609;49.466;8.468;2022-11-14T22:11:45;10.90;99.90
11112;DHT22;5609;49.466;8.468;2022-11-14T22:14:12;10.90;99.90
11112;DHT22;5609;49.466;8.468;2022-11-14T22:16:39;11.00;99.90
11112;DHT22;5609;49.466;8.468;2022-11-14T22:19:06;11.10;99.90
11112;DHT22;5609;49.466;8.468;2022-11-14T22:21:34;11.20;99.90
11112;DHT22;5609;49.466;8.468;2022-11-14T22:24:00;11.20;99.90
11112;DHT22;5609;49.466;8.468;2022-11-14T22:26:27;11.30;99.90
11112;DHT22;5609;49.466;8.468;2022-11-14T22:28:54;11.30;99.90
11112;DHT22;5609;49.466;8.468;2022-11-14T22:31:22;11.40;99.90
11112;DHT22;5609;49.466;8.468;2022-11-14T22:33:50;11.50;99.90
11112;DHT22;5609;49.466;8.468;2022-11-14T22:36:18;11.50;99.90
11112;DHT22;5609;49.466;8.468;2022-11-14T22:38:47;11.50;99.90
11112;DHT22;5609;49.466;8.468;2022-11-14T22:41:15;11.50;99.90
11112;DHT22;5609;49.466;8.468;2022-11-14T22:43:42;11.50;99.90
11112;DHT22;5609;49.466;8.468;2022-11-14T22:46:10;11.60;99.90
11112;DHT22;5609;49.466;8.468;2022-11-14T22:48:37;11.50;99.90
11112;DHT22;5609;49.466;8.468;2022-11-14T22:51:06;11.50;99.90
11112;DHT22;5609;49.466;8.468;2022-11-14T22:53:34;11.60;99.90
11112;DHT22;5609;49.466;8.468;2022-11-14T22:56:04;11.60;99.90
11112;DHT22;5609;49.466;8.468;2022-11-14T22:58:32;11.60;99.90
11112;DHT22;5609;49.466;8.468;2022-11-14T23:00:59;11.60;99.90
11112;DHT22;5609;49.466;8.468;2022-11-14T23:03:26;11.60;99.90
11112;DHT22;5609;49.466;8.468;2022-11-14T23:05:53;11.60;99.90
11112;DHT22;5609;49.466;8.468;2022-11-14T23:08:20;11.60;99.90
11112;DHT22;5609;49.466;8.468;2022-11-14T23:10:47;11.60;99.90
11112;DHT22;5609;49.466;8.468;2022-11-14T23:13:15;11.60;99.90
11112;DHT22;5609;49.466;8.468;2022-11-14T23:15:46;11.70;99.90
11112;DHT22;5609;49.466;8.468;2022-11-14T23:18:13;11.60;99.90
11112;DHT22;5609;49.466;8.468;2022-11-14T23:20:40;11.70;99.90
11112;DHT22;5609;49.466;8.468;2022-11-14T23:23:07;11.70;99.90
11112;DHT22;5609;49.466;8.468;2022-11-14T23:25:34;11.80;99.90
11112;DHT22;5609;49.466;8.468;2022-11-14T23:28:01;11.90;99.90
11112;DHT22;5609;49.466;8.468;2022-11-14T23:30:30;11.90;99.90
11112;DHT22;5609;49.466;8.468;2022-11-14T23:32:56;11.90;99.90
11112;DHT22;5609;49.466;8.468;2022-11-14T23:35:23;12.00;99.90
11112;DHT22;5609;49.466;8.468;2022-11-14T23:37:50;12.00;99.90
11112;DHT22;5609;49.466;8.468;2022-11-14T23:40:17;12.00;99.90
11112;DHT22;5609;49.466;8.468;2022-11-14T23:42:43;12.00;99.90
11112;DHT22;5609;49.466;8.468;2022-11-14T23:45:10;12.00;99.90
11112;DHT22;5609;49.466;8.468;2022-11-14T23:47:38;12.10;99.90
11112;DHT22;5609;49.466;8.468;2022-11-14T23:50:05;12.10;99.90
11112;DHT22;5609;49.466;8.468;2022-11-14T23:52:32;12.10;99.90
11112;DHT22;5609;49.466;8.468;2022-11-14T23:54:59;12.10;99.90
11112;DHT22;5609;49.466;8.468;2022-11-14T23:57:27;12.10;99.90
11112;DHT22;5609;49.466;8.468;2022-11-14T23:59:53;12.10;99.90
